Greenwood, Wisconsin
Current Conditions -  °F | °C
As of 3:54 PM on Wednesday 22 Oct 2014 (Local Time) from KMFI Reporting Station
Clear Clear  
Wind Chill: 56°   Ceiling: Unl
Heat Index: 56°   Visibility: 10mi
Dew Point: 32°   Wind: 13mph
Humidity: 40%   Direction: 170°S
Pressure: 30.22"   Gusts: NA
Location:  44.77°N, 90.6°W
Report Text: KMFI 222054Z AUTO 17011KT 10SM CLR 13/00 A3022 RMK AO2 SLP244 T01330000 56020
Loading
Personal Weather Stations






























Interactive Weather Map
Tropical Storm Tracking
New forecast layout! Learn more

10-Day Weather Forecast

Advertisements
Track Severe Weather on mobile